Time;durP1;ratioP1;P1;durP2;ratioP2;P2;SDS_P1;SDS_P2;PMS_P1;PMS_P2;Temp;Humidity;BMP_temperature;BMP_pressure;BME280_temperature;BME280_humidity;BME280_pressure;Samples;Min_cycle;Max_cycle;Signal;HPM_P1;HPM_P2
2024/01/21 00:02:43;;;;;;;8.10;3.88;;;;;;;-1.60;73.31;102213.00;4932011;29;20040;-91
2024/01/21 00:05:23;;;;;;;5.93;3.13;;;;;;;-1.63;73.63;102214.03;4913827;29;20047;-91
2024/01/21 00:08:11;;;;;;;4.57;2.60;;;;;;;-1.59;75.25;102217.38;4926070;29;20019;-91
2024/01/21 00:10:40;;;;;;;6.30;3.28;;;;;;;-1.65;74.36;102207.97;4943129;29;20146;-91
2024/01/21 00:13:19;;;;;;;5.57;3.00;;;;;;;-1.72;73.42;102201.34;4952889;29;20102;-91
2024/01/21 00:15:47;;;;;;;6.55;3.00;;;;;;;-1.77;74.91;102193.69;4937669;29;20138;-94
2024/01/21 00:18:43;;;;;;;6.83;2.70;;;;;;;-1.74;75.14;102199.75;4936636;29;20046;-94
2024/01/21 00:21:17;;;;;;;4.03;2.50;;;;;;;-1.81;75.70;102197.50;4952507;29;20095;-92
2024/01/21 00:23:50;;;;;;;6.55;2.88;;;;;;;-1.85;75.84;102195.13;4952835;29;20042;-92
2024/01/21 00:26:24;;;;;;;5.00;2.88;;;;;;;-1.94;75.83;102184.13;4952841;29;20031;-91
2024/01/21 00:29:07;;;;;;;5.47;2.60;;;;;;;-1.96;76.24;102177.22;4922548;29;20039;-92
2024/01/21 00:31:43;;;;;;;5.70;3.30;;;;;;;-1.99;76.23;102180.09;4930188;29;20504;-92
2024/01/21 00:34:09;;;;;;;6.28;2.95;;;;;;;-2.03;77.15;102170.59;4945366;29;20036;-92
2024/01/21 00:36:35;;;;;;;6.40;2.90;;;;;;;-2.05;79.11;102161.84;4937181;29;20039;-91
2024/01/21 00:39:01;;;;;;;7.73;2.93;;;;;;;-2.04;79.62;102164.41;4953034;29;20028;-91
2024/01/21 00:41:38;;;;;;;6.40;3.60;;;;;;;-2.05;80.00;102156.53;4949367;29;20115;-91
2024/01/21 00:44:29;;;;;;;6.63;3.05;;;;;;;-2.03;82.76;102160.81;4934260;29;20382;-93
2024/01/21 00:46:58;;;;;;;7.80;2.83;;;;;;;-2.02;82.26;102161.66;4933896;29;20032;-92
2024/01/21 00:49:31;;;;;;;5.93;2.67;;;;;;;-2.04;84.06;102161.75;4933622;29;20040;-92
2024/01/21 00:51:59;;;;;;;5.53;2.70;;;;;;;-2.02;84.44;102166.97;4934593;29;20058;-92
2024/01/21 00:54:32;;;;;;;8.10;3.25;;;;;;;-2.03;83.46;102170.59;4936146;29;20032;-92
2024/01/21 00:57:12;;;;;;;6.72;3.20;;;;;;;-2.04;82.50;102176.88;4941933;29;20056;-94
2024/01/21 00:59:49;;;;;;;6.18;3.15;;;;;;;-2.01;84.99;102171.34;4942864;29;20040;-92
2024/01/21 01:02:25;;;;;;;5.17;2.90;;;;;;;-2.00;86.49;102160.59;4936542;29;20052;-93
2024/01/21 01:04:53;;;;;;;6.63;2.92;;;;;;;-2.00;86.44;102141.97;4936281;29;20043;-92
2024/01/21 01:07:31;;;;;;;7.25;3.70;;;;;;;-1.95;86.04;102136.34;4935760;29;20035;-92
2024/01/21 01:10:00;;;;;;;7.05;2.97;;;;;;;-1.92;86.34;102129.97;4908792;29;20092;-92
2024/01/21 01:12:33;;;;;;;7.82;3.42;;;;;;;-1.87;87.66;102133.19;4901424;29;20080;-93
2024/01/21 01:15:18;;;;;;;6.57;3.70;;;;;;;-1.91;86.39;102121.91;4902723;29;20040;-92
2024/01/21 01:18:17;;;;;;;;;;;;;;;;;;;;;
2024/01/21 01:20:46;;;;;;;7.32;3.20;;;;;;;-1.79;86.86;102120.22;4908146;29;20046;-93
2024/01/21 01:23:19;;;;;;;8.45;3.40;;;;;;;-1.79;86.76;102102.47;4920146;29;20044;-92
2024/01/21 01:25:55;;;;;;;;;;;;;;;;;;;;;
2024/01/21 01:28:33;;;;;;;9.83;3.90;;;;;;;-1.74;86.38;102083.53;4921229;29;20511;-92
2024/01/21 01:31:07;;;;;;;11.48;3.65;;;;;;;-1.67;85.89;102090.13;4905116;29;20036;-92
2024/01/21 01:33:43;;;;;;;8.32;3.72;;;;;;;-1.64;85.89;102083.72;4920488;29;20039;-92
2024/01/21 01:36:16;;;;;;;11.10;4.28;;;;;;;-1.68;84.00;102075.13;4919673;29;20032;-92
2024/01/21 01:38:53;;;;;;;8.30;2.97;;;;;;;-1.66;85.22;102077.66;4919192;29;20048;-92
2024/01/21 01:41:19;;;;;;;8.30;3.80;;;;;;;-1.70;84.76;102062.88;4903884;29;20036;-93
2024/01/21 01:43:50;;;;;;;7.32;3.25;;;;;;;-1.65;84.44;102055.44;4918385;29;20036;-92
2024/01/21 01:46:16;;;;;;;6.25;3.40;;;;;;;-1.62;83.74;102052.56;4903189;29;20063;-93
2024/01/21 01:48:42;;;;;;;6.90;3.53;;;;;;;-1.56;82.44;102053.94;4918980;29;20055;-92
2024/01/21 01:51:11;;;;;;;9.23;4.10;;;;;;;-1.57;82.05;102044.25;4919048;29;20295;-94
2024/01/21 01:53:47;;;;;;;;;;;;;;;;;;;;;
2024/01/21 01:56:29;;;;;;;;;;;;;;;;;;;;;
2024/01/21 01:59:22;;;;;;;7.35;2.95;;;;;;;-1.52;79.72;102044.75;4918774;29;20054;-92
2024/01/21 02:01:56;;;;;;;6.67;2.63;;;;;;;-1.57;81.33;102039.75;4918732;29;20032;-92
2024/01/21 02:04:25;;;;;;;6.55;2.78;;;;;;;-1.62;80.63;102031.25;4903085;29;20272;-92
2024/01/21 02:07:03;;;;;;;5.60;3.08;;;;;;;-1.63;80.46;102026.88;4918197;29;20032;-92
2024/01/21 02:09:43;;;;;;;6.05;2.60;;;;;;;-1.60;81.67;102016.88;4921068;29;20058;-92
2024/01/21 02:12:09;;;;;;;4.80;2.38;;;;;;;-1.57;80.73;102002.50;4921516;29;20106;-92
2024/01/21 02:14:44;;;;;;;7.13;2.73;;;;;;;-1.60;80.78;102008.03;4902805;29;20508;-92
2024/01/21 02:17:15;;;;;;;5.07;2.63;;;;;;;-1.56;78.18;102012.19;4902918;29;20292;-92
2024/01/21 02:19:56;;;;;;;5.57;2.45;;;;;;;-1.54;78.06;101996.13;4918382;29;20035;-93
2024/01/21 02:22:34;;;;;;;4.55;2.85;;;;;;;-1.55;78.95;101992.63;4902870;29;20062;-92
2024/01/21 02:25:07;;;;;;;7.13;2.40;;;;;;;-1.54;76.85;101986.31;4902817;29;20032;-92
2024/01/21 02:27:37;;;;;;;4.23;2.20;;;;;;;-1.52;76.44;101986.19;4902921;29;20033;-92
2024/01/21 02:30:03;;;;;;;4.68;1.98;;;;;;;-1.50;76.28;101979.81;4902605;29;20399;-92
2024/01/21 02:32:49;;;;;;;4.22;2.00;;;;;;;-1.45;75.85;101972.38;4902637;29;20473;-92
2024/01/21 02:35:15;;;;;;;4.30;2.13;;;;;;;-1.41;76.47;101973.81;4919157;29;20024;-92
2024/01/21 02:37:42;;;;;;;3.90;1.80;;;;;;;-1.37;76.98;101952.31;4902434;29;20064;-92
2024/01/21 02:40:20;;;;;;;4.15;1.63;;;;;;;-1.32;76.03;101955.50;4902810;29;20425;-92
2024/01/21 02:42:45;;;;;;;5.07;2.25;;;;;;;-1.30;76.24;101951.78;4901162;29;20048;-93
2024/01/21 02:45:25;;;;;;;3.00;1.60;;;;;;;-1.24;74.83;101939.81;4902978;29;20032;-92
2024/01/21 02:47:53;;;;;;;4.25;1.95;;;;;;;-1.22;75.97;101940.56;4907525;29;20103;-92
2024/01/21 02:50:22;;;;;;;4.20;1.80;;;;;;;-1.16;76.07;101944.59;4903054;29;20489;-92
2024/01/21 02:52:50;;;;;;;4.43;2.13;;;;;;;-1.17;70.47;101941.06;4918024;29;20492;-93
2024/01/21 02:55:33;;;;;;;4.47;1.90;;;;;;;-1.15;72.41;101952.47;4918079;29;20469;-92
2024/01/21 02:57:59;;;;;;;5.00;2.10;;;;;;;-1.17;69.53;101958.88;4887081;29;20055;-92
2024/01/21 03:00:27;;;;;;;4.45;2.35;;;;;;;-1.18;68.97;101949.16;4902308;29;20040;-92
2024/01/21 03:02:58;;;;;;;5.20;2.42;;;;;;;-1.14;68.99;101959.47;4917944;29;20091;-93
2024/01/21 03:05:33;;;;;;;5.97;2.17;;;;;;;-1.15;68.55;101949.81;4902275;29;20044;-92
2024/01/21 03:08:01;;;;;;;6.78;2.40;;;;;;;-1.12;69.39;101946.91;4917714;29;20043;-93
2024/01/21 03:10:31;;;;;;;4.22;2.13;;;;;;;-1.12;68.49;101938.06;4904450;29;20035;-92
2024/01/21 03:13:07;;;;;;;3.92;2.20;;;;;;;-1.16;68.83;101920.63;4937185;29;20612;-93
2024/01/21 03:15:36;;;;;;;4.93;2.60;;;;;;;-1.21;69.69;101917.44;4936946;29;20453;-92
2024/01/21 03:18:02;;;;;;;6.33;2.57;;;;;;;-1.26;69.61;101923.94;4936724;29;20048;-93
2024/01/21 03:20:27;;;;;;;5.55;2.08;;;;;;;-1.25;70.07;101924.81;4935898;29;20038;-93
2024/01/21 03:23:02;;;;;;;7.07;2.63;;;;;;;-1.32;69.98;101926.22;4936679;29;20028;-93
2024/01/21 03:25:36;;;;;;;5.05;2.50;;;;;;;-1.34;70.09;101925.50;4936917;29;20046;-92
2024/01/21 03:28:11;;;;;;;6.13;2.40;;;;;;;-1.39;70.57;101922.28;4936812;29;20103;-92
2024/01/21 03:30:52;;;;;;;6.13;2.20;;;;;;;-1.42;71.03;101928.69;4936683;29;20479;-92
2024/01/21 03:33:34;;;;;;;6.90;2.13;;;;;;;-1.44;71.42;101918.13;4920625;29;20034;-92
2024/01/21 03:36:09;;;;;;;5.50;2.07;;;;;;;-1.44;71.43;101912.81;4936738;29;20175;-92
2024/01/21 03:38:44;;;;;;;4.90;2.00;;;;;;;-1.44;71.87;101917.31;4921194;29;20495;-93
2024/01/21 03:41:19;;;;;;;3.78;2.20;;;;;;;-1.46;71.89;101914.75;4921898;29;20039;-92
2024/01/21 03:43:49;;;;;;;5.03;2.25;;;;;;;-1.44;72.23;101902.16;4937109;29;20044;-92
2024/01/21 03:46:23;;;;;;;4.78;2.05;;;;;;;-1.42;72.67;101894.06;4922114;29;20556;-92
2024/01/21 03:49:06;;;;;;;4.97;2.10;;;;;;;-1.38;72.49;101894.72;4943307;29;20035;-92
2024/01/21 03:51:35;;;;;;;7.68;2.38;;;;;;;-1.37;72.43;101910.56;4929075;29;20634;-91
2024/01/21 03:54:10;;;;;;;5.32;2.33;;;;;;;-1.33;72.78;101903.19;4907362;29;20059;-91
2024/01/21 03:56:44;;;;;;;5.15;2.20;;;;;;;-1.31;72.76;101898.63;4936522;29;20492;-92
2024/01/21 03:59:15;;;;;;;5.50;2.38;;;;;;;-1.33;73.54;101866.78;4936920;29;20075;-92
2024/01/21 04:01:50;;;;;;;4.90;2.27;;;;;;;-1.31;74.23;101866.69;4937206;29;20032;-92
2024/01/21 04:04:26;;;;;;;5.38;2.25;;;;;;;-1.29;73.49;101867.41;4937047;29;20031;-92
2024/01/21 04:06:52;;;;;;;6.93;2.22;;;;;;;-1.28;73.41;101858.47;4937006;29;20093;-92
2024/01/21 04:09:31;;;;;;;4.23;2.03;;;;;;;-1.24;73.54;101851.94;4937026;29;20488;-92
2024/01/21 04:12:00;;;;;;;5.97;2.53;;;;;;;-1.24;73.69;101843.94;4936575;29;20048;-93
2024/01/21 04:14:47;;;;;;;5.53;2.40;;;;;;;-1.20;73.83;101842.75;4936181;29;20043;-92
2024/01/21 04:17:15;;;;;;;5.70;2.17;;;;;;;-1.18;73.65;101851.50;4905891;29;20036;-92
2024/01/21 04:19:47;;;;;;;5.82;2.08;;;;;;;-1.14;73.58;101868.09;4936179;29;20042;-92
2024/01/21 04:22:22;;;;;;;4.70;1.80;;;;;;;-1.10;73.66;101870.41;4935801;29;20032;-91
2024/01/21 04:24:50;;;;;;;4.97;2.67;;;;;;;-1.04;73.30;101865.59;4935556;29;20028;-92
2024/01/21 04:27:16;;;;;;;5.28;2.22;;;;;;;-0.98;73.13;101870.47;4935714;29;20059;-92
2024/01/21 04:29:47;;;;;;;7.50;2.35;;;;;;;-0.89;73.02;101864.44;4936147;29;20122;-91
2024/01/21 04:32:15;;;;;;;5.43;2.20;;;;;;;-0.78;73.30;101864.47;4939891;29;20031;-91
2024/01/21 04:34:43;;;;;;;6.55;2.60;;;;;;;-0.66;72.18;101848.53;4938932;29;20034;-91
2024/01/21 04:37:11;;;;;;;4.85;2.55;;;;;;;-0.60;72.00;101842.72;4939073;29;20057;-91
2024/01/21 04:39:37;;;;;;;5.82;2.78;;;;;;;-0.49;71.83;101836.56;4923083;29;20028;-90
2024/01/21 04:42:08;;;;;;;7.30;2.70;;;;;;;-0.43;71.28;101804.06;4939224;29;20040;-92
2024/01/21 04:44:34;;;;;;;5.68;2.60;;;;;;;-0.36;71.15;101791.97;4939284;29;20114;-91
2024/01/21 04:46:59;;;;;;;6.23;2.50;;;;;;;-0.32;70.75;101779.25;4923770;29;20055;-91
2024/01/21 04:49:25;;;;;;;4.80;2.80;;;;;;;-0.28;70.63;101781.56;4938897;29;20450;-92
2024/01/21 04:51:50;;;;;;;5.63;2.77;;;;;;;-0.24;71.21;101753.66;4938705;29;20054;-92
2024/01/21 04:54:19;;;;;;;5.50;2.85;;;;;;;-0.20;70.69;101760.44;4939458;29;20031;-92
2024/01/21 04:56:45;;;;;;;5.60;2.53;;;;;;;-0.15;70.59;101761.91;4925085;29;20086;-92
2024/01/21 04:59:11;;;;;;;5.00;2.67;;;;;;;-0.09;69.58;101756.94;4940041;29;20032;-92
2024/01/21 05:01:40;;;;;;;7.65;3.67;;;;;;;-0.02;70.45;101759.94;4939266;29;20078;-92
2024/01/21 05:04:13;;;;;;;6.83;3.47;;;;;;;0.01;69.93;101751.69;4923469;29;20043;-92
2024/01/21 05:06:46;;;;;;;7.03;3.53;;;;;;;0.03;69.70;101765.75;4923370;29;20291;-92
2024/01/21 05:09:14;;;;;;;8.30;3.58;;;;;;;0.09;69.97;101769.72;4922939;29;20028;-92
2024/01/21 05:11:42;;;;;;;6.22;3.40;;;;;;;0.14;68.91;101767.56;4922403;29;20063;-92
2024/01/21 05:14:14;;;;;;;9.43;4.25;;;;;;;0.16;68.89;101769.13;4938675;29;20489;-92
2024/01/21 05:16:40;;;;;;;9.30;3.77;;;;;;;0.20;68.42;101760.88;4938682;29;20111;-92
2024/01/21 05:19:18;;;;;;;;;;;;;;;;;;;;;
2024/01/21 05:21:56;;;;;;;8.20;4.32;;;;;;;0.22;69.28;101772.25;4919977;29;20418;-93
2024/01/21 05:24:22;;;;;;;8.65;3.45;;;;;;;0.29;69.01;101790.31;4919098;29;20519;-92
2024/01/21 05:30:15;;;;;;;7.88;4.03;;;;;;;0.34;69.10;101755.25;4919020;29;20043;-93
2024/01/21 05:32:46;;;;;;;6.25;3.38;;;;;;;0.34;68.51;101756.09;4903651;29;20096;-92
2024/01/21 05:35:22;;;;;;;7.28;3.25;;;;;;;0.39;68.39;101761.06;4919203;29;20125;-93
2024/01/21 05:37:51;;;;;;;7.17;3.53;;;;;;;0.38;68.14;101754.00;4903353;29;20043;-93
2024/01/21 05:40:33;;;;;;;;;;;;;;;;;;;;;
2024/01/21 05:43:00;;;;;;;7.30;3.15;;;;;;;0.43;69.05;101773.19;4917877;29;20064;-92
2024/01/21 05:45:42;;;;;;;7.13;3.22;;;;;;;0.46;69.00;101775.59;4907269;29;20039;-92
2024/01/21 05:48:12;;;;;;;8.68;3.63;;;;;;;0.50;68.79;101762.84;4909701;29;20095;-92
2024/01/21 05:50:51;;;;;;;7.37;4.00;;;;;;;0.47;68.99;101761.28;4938445;29;20019;-92
2024/01/21 05:53:26;;;;;;;7.10;3.50;;;;;;;0.54;68.27;101758.09;4923386;29;20040;-90
2024/01/21 05:55:54;;;;;;;6.55;3.42;;;;;;;0.55;68.30;101759.78;4922824;29;20028;-92
2024/01/21 05:58:25;;;;;;;8.77;3.65;;;;;;;0.54;67.97;101761.59;4906244;29;20052;-92
2024/01/21 06:00:53;;;;;;;7.63;3.88;;;;;;;0.52;68.96;101759.06;4938742;29;20036;-92
2024/01/21 06:03:19;;;;;;;9.10;3.10;;;;;;;0.50;68.65;101754.81;4937947;29;20050;-93
2024/01/21 06:05:45;;;;;;;7.75;3.55;;;;;;;0.50;68.70;101739.66;4938131;29;20127;-93
2024/01/21 06:08:13;;;;;;;7.13;3.70;;;;;;;0.52;68.74;101732.38;4937608;29;20031;-92
2024/01/21 06:10:42;;;;;;;5.22;3.25;;;;;;;0.52;68.36;101743.03;4937516;29;20020;-92
2024/01/21 06:13:16;;;;;;;7.07;3.47;;;;;;;0.52;68.68;101748.38;4922591;29;20532;-90
2024/01/21 06:15:42;;;;;;;5.40;3.45;;;;;;;0.56;68.46;101737.44;4938194;29;20072;-92
2024/01/21 06:18:15;;;;;;;7.80;3.50;;;;;;;0.56;69.36;101743.66;4938068;29;20028;-93
2024/01/21 06:20:53;;;;;;;6.53;3.15;;;;;;;0.60;68.33;101761.09;4937549;29;20052;-93
2024/01/21 06:23:53;;;;;;;7.18;3.40;;;;;;;0.65;67.94;101771.38;4939254;29;20030;-92
2024/01/21 06:26:26;;;;;;;6.40;3.40;;;;;;;0.67;67.42;101777.47;4937701;29;20071;-92
2024/01/21 06:29:10;;;;;;;8.38;3.92;;;;;;;0.66;67.64;101773.94;4937718;29;20032;-93
2024/01/21 06:31:48;;;;;;;7.70;3.78;;;;;;;0.64;67.47;101757.19;4923452;29;20138;-92
2024/01/21 06:34:16;;;;;;;7.78;3.50;;;;;;;0.66;67.88;101771.25;4938586;29;20082;-92
2024/01/21 06:36:54;;;;;;;7.22;3.63;;;;;;;0.71;67.58;101776.25;4938459;29;20477;-91
2024/01/21 06:39:19;;;;;;;6.33;3.20;;;;;;;0.71;67.15;101770.91;4923329;29;20035;-92
2024/01/21 06:41:47;;;;;;;8.77;3.35;;;;;;;0.77;65.95;101764.19;4928440;29;20404;-92
2024/01/21 06:44:33;;;;;;;7.45;3.78;;;;;;;0.73;66.07;101762.75;4929447;29;20028;-92
2024/01/21 06:47:07;;;;;;;5.30;3.00;;;;;;;0.76;66.28;101760.66;4938587;29;20050;-92
2024/01/21 06:49:33;;;;;;;7.10;3.55;;;;;;;0.76;66.29;101757.16;4921756;29;20035;-90
2024/01/21 06:52:01;;;;;;;9.20;3.72;;;;;;;0.74;65.62;101754.63;4920560;29;20035;-91
2024/01/21 06:54:30;;;;;;;5.22;3.00;;;;;;;0.78;65.49;101772.06;4920247;29;20024;-89
2024/01/21 06:56:57;;;;;;;9.50;3.80;;;;;;;0.83;66.64;101780.56;4936567;29;20476;-90
2024/01/21 06:59:26;;;;;;;7.97;3.47;;;;;;;0.83;66.79;101774.38;4920011;29;20028;-90
2024/01/21 07:01:59;;;;;;;7.20;3.47;;;;;;;0.83;66.24;101763.69;4935977;29;20032;-91
2024/01/21 07:04:30;;;;;;;6.88;3.55;;;;;;;0.85;64.97;101764.38;4936368;29;20051;-92
2024/01/21 07:07:00;;;;;;;6.70;3.03;;;;;;;0.91;64.47;101745.16;4921894;29;20051;-91
2024/01/21 07:09:36;;;;;;;;;;;;;;;;;;;;;
2024/01/21 07:12:04;;;;;;;7.78;3.33;;;;;;;0.93;63.94;101715.63;4925910;29;20048;-90
2024/01/21 07:14:34;;;;;;;9.20;3.78;;;;;;;0.94;63.86;101710.16;4924404;29;20121;-91
2024/01/21 07:17:03;;;;;;;7.55;3.20;;;;;;;0.96;63.84;101712.69;4944951;29;20038;-90
2024/01/21 07:19:29;;;;;;;5.10;3.13;;;;;;;0.98;62.81;101714.28;4928443;29;20110;-91
2024/01/21 07:21:58;;;;;;;6.30;3.40;;;;;;;0.98;62.90;101724.97;4917006;29;20040;-90
2024/01/21 07:24:41;;;;;;;6.32;3.50;;;;;;;1.02;63.05;101720.22;4928520;29;20035;-90
2024/01/21 07:27:11;;;;;;;6.63;3.13;;;;;;;0.98;62.70;101713.44;4936010;29;20038;-91
2024/01/21 07:29:47;;;;;;;5.90;3.08;;;;;;;0.97;62.66;101720.59;4917154;29;20052;-91
2024/01/21 07:32:15;;;;;;;6.30;2.90;;;;;;;0.94;62.48;101717.34;4929196;29;20035;-89
2024/01/21 07:34:41;;;;;;;6.33;3.50;;;;;;;0.90;62.00;101706.09;4935465;29;20138;-90
2024/01/21 07:37:09;;;;;;;7.68;3.47;;;;;;;0.92;62.46;101711.28;4919369;29;20138;-90
2024/01/21 07:39:38;;;;;;;6.28;3.65;;;;;;;0.93;62.02;101712.97;4907372;29;20034;-91
2024/01/21 07:42:04;;;;;;;6.15;3.30;;;;;;;0.92;61.45;101714.81;4919736;29;20031;-90
2024/01/21 07:44:32;;;;;;;6.90;3.08;;;;;;;0.91;62.15;101709.59;4935001;29;20433;-90
2024/01/21 07:47:00;;;;;;;7.53;3.15;;;;;;;0.90;62.70;101713.22;4935730;29;20178;-90
2024/01/21 07:49:26;;;;;;;9.27;3.83;;;;;;;0.91;62.42;101737.16;4891366;29;20039;-90
2024/01/21 07:52:10;;;;;;;6.95;3.63;;;;;;;0.90;62.28;101723.91;4920136;29;20366;-90
2024/01/21 07:54:40;;;;;;;5.93;3.07;;;;;;;0.88;62.93;101740.91;4932897;29;20039;-90
2024/01/21 07:57:17;;;;;;;8.20;3.22;;;;;;;0.89;62.11;101752.47;4928150;29;20295;-90
2024/01/21 07:59:47;;;;;;;6.25;3.28;;;;;;;0.96;62.68;101760.81;4922904;29;20039;-90
2024/01/21 08:02:26;;;;;;;5.95;2.97;;;;;;;0.91;61.74;101760.34;4920078;29;20039;-90
2024/01/21 08:04:57;;;;;;;6.85;3.58;;;;;;;0.95;62.57;101775.16;4934712;29;20047;-92
2024/01/21 08:07:33;;;;;;;;;;;;;;;;;;;;;
2024/01/21 08:12:44;;;;;;;6.13;2.83;;;;;;;0.98;63.25;101798.97;4937418;29;20143;-89
2024/01/21 08:15:10;;;;;;;6.90;2.90;;;;;;;1.05;62.50;101814.34;4907214;29;20055;-90
2024/01/21 08:17:53;;;;;;;7.27;3.30;;;;;;;1.13;62.63;101813.69;4943205;29;20114;-91
2024/01/21 08:20:24;;;;;;;5.22;2.67;;;;;;;1.23;62.38;101813.75;4948951;28;20433;-91
2024/01/21 08:22:49;;;;;;;6.45;3.13;;;;;;;1.26;62.75;101821.53;4923391;29;20412;-89
2024/01/21 08:25:15;;;;;;;8.57;3.37;;;;;;;1.36;62.64;101832.28;4929638;29;20067;-89
2024/01/21 08:27:48;;;;;;;5.07;2.70;;;;;;;1.40;62.57;101829.22;4928672;29;20035;-88
2024/01/21 08:30:19;;;;;;;6.07;2.92;;;;;;;1.42;62.50;101826.41;4930508;29;20036;-91
2024/01/21 08:32:57;;;;;;;;;;;;;;;;;;;;;
2024/01/21 08:35:23;;;;;;;6.97;3.65;;;;;;;1.47;62.35;101809.97;4949876;29;20055;-89
2024/01/21 08:38:00;;;;;;;6.90;2.93;;;;;;;1.56;62.40;101803.81;4946071;29;20389;-89
2024/01/21 08:40:28;;;;;;;5.28;2.90;;;;;;;1.58;62.56;101797.38;4941721;29;20036;-91
2024/01/21 08:42:59;;;;;;;7.20;3.05;;;;;;;1.60;62.95;101781.19;4926558;29;20494;-88
2024/01/21 08:45:29;;;;;;;5.93;3.30;;;;;;;1.64;63.03;101782.59;4943966;29;20050;-88
2024/01/21 08:47:56;;;;;;;4.60;2.70;;;;;;;1.68;63.71;101778.69;4937137;29;20047;-90
2024/01/21 08:50:27;;;;;;;6.18;3.28;;;;;;;1.63;63.73;101788.94;4931094;29;20028;-90
2024/01/21 08:53:02;;;;;;;5.07;2.70;;;;;;;1.68;65.27;101797.41;4937706;29;20038;-90
2024/01/21 08:55:30;;;;;;;6.95;3.20;;;;;;;1.77;66.47;101806.44;4934939;29;20099;-90
2024/01/21 08:58:12;;;;;;;6.25;2.83;;;;;;;1.81;67.35;101810.56;4946100;29;20047;-89
2024/01/21 09:00:40;;;;;;;4.53;2.70;;;;;;;1.87;68.30;101817.19;4945138;29;20087;-91
2024/01/21 09:03:17;;;;;;;6.00;3.10;;;;;;;1.91;69.20;101810.59;4928265;29;20032;-92
2024/01/21 09:05:47;;;;;;;5.20;2.90;;;;;;;1.88;70.81;101811.72;4916360;29;20032;-91
2024/01/21 09:08:23;;;;;;;5.82;3.00;;;;;;;1.91;71.72;101822.16;4925094;29;20056;-91
2024/01/21 09:10:53;;;;;;;5.22;3.05;;;;;;;1.86;73.68;101835.09;4919740;29;20024;-90
2024/01/21 09:13:22;;;;;;;9.03;3.60;;;;;;;1.84;75.00;101838.88;4936139;29;20126;-92
2024/01/21 09:15:52;;;;;;;6.40;3.30;;;;;;;1.88;76.45;101833.13;4920672;29;20408;-90
2024/01/21 09:18:43;;;;;;;6.03;3.10;;;;;;;1.88;77.39;101821.59;4938120;29;20035;-92
2024/01/21 09:21:08;;;;;;;7.32;3.25;;;;;;;1.92;79.40;101831.88;4888160;29;20051;-90
2024/01/21 09:23:46;;;;;;;6.15;2.95;;;;;;;1.89;81.07;101828.59;4921840;29;20038;-91
2024/01/21 09:26:18;;;;;;;9.40;2.93;;;;;;;1.87;83.26;101852.84;4908245;29;20434;-91
2024/01/21 09:28:52;;;;;;;6.00;3.38;;;;;;;1.86;84.32;101842.25;4876661;29;20064;-90
2024/01/21 09:31:25;;;;;;;8.20;3.05;;;;;;;1.86;85.79;101850.28;4904914;29;20040;-91
2024/01/21 09:33:56;;;;;;;6.82;3.63;;;;;;;1.83;87.91;101850.56;4904305;29;20044;-89
2024/01/21 09:36:25;;;;;;;8.27;3.20;;;;;;;1.87;89.65;101866.22;4919560;29;20039;-90
2024/01/21 09:38:51;;;;;;;5.97;2.90;;;;;;;1.87;90.72;101852.00;4903480;29;20544;-90
2024/01/21 09:41:30;;;;;;;9.82;3.78;;;;;;;1.90;94.00;101870.47;4903468;29;20031;-89
2024/01/21 09:44:01;;;;;;;5.57;3.35;;;;;;;1.88;95.17;101867.06;4919339;29;20040;-89
2024/01/21 09:46:31;;;;;;;5.97;3.13;;;;;;;1.87;97.04;101868.06;4902756;29;20028;-93
2024/01/21 09:49:03;;;;;;;5.43;3.00;;;;;;;1.81;99.36;101865.91;4918982;29;20174;-92
2024/01/21 09:51:37;;;;;;;6.20;3.30;;;;;;;1.83;100.00;101863.94;4913451;29;20040;-91
2024/01/21 09:54:06;;;;;;;5.20;3.08;;;;;;;1.82;100.00;101852.41;4937402;29;20032;-91
2024/01/21 09:56:38;;;;;;;5.63;2.85;;;;;;;1.86;100.00;101853.84;4937551;29;20027;-91
2024/01/21 09:59:05;;;;;;;6.63;3.33;;;;;;;1.85;100.00;101852.13;4937049;29;20036;-89
2024/01/21 10:01:36;;;;;;;6.35;3.53;;;;;;;1.88;100.00;101862.56;4937054;29;20130;-91
2024/01/21 10:04:04;;;;;;;5.72;3.28;;;;;;;1.88;100.00;101859.88;4937301;29;20031;-91
2024/01/21 10:06:30;;;;;;;7.38;3.50;;;;;;;1.89;100.00;101853.56;4926650;29;20529;-90
2024/01/21 10:09:16;;;;;;;6.57;3.30;;;;;;;1.89;100.00;101860.72;4917948;29;20044;-91
2024/01/21 10:11:42;;;;;;;6.00;3.20;;;;;;;1.88;100.00;101848.34;4917741;29;20549;-90
2024/01/21 10:14:08;;;;;;;6.75;3.85;;;;;;;1.92;100.00;101852.47;4920022;29;20056;-91
2024/01/21 10:16:42;;;;;;;7.40;3.88;;;;;;;1.94;100.00;101869.22;4936918;29;20036;-89
2024/01/21 10:19:23;;;;;;;5.90;3.25;;;;;;;1.95;100.00;101854.88;4937473;29;20087;-91
2024/01/21 10:22:08;;;;;;;10.10;3.47;;;;;;;1.98;100.00;101843.88;4938533;29;20094;-92
2024/01/21 10:25:03;;;;;;;;;;;;;;;;;;;;;
2024/01/21 10:27:30;;;;;;;11.00;3.70;;;;;;;2.12;100.00;101836.47;4918956;29;20054;-92
2024/01/21 10:30:03;;;;;;;7.22;4.10;;;;;;;2.11;100.00;101838.28;4918412;29;20503;-91
2024/01/21 10:32:29;;;;;;;8.70;3.83;;;;;;;2.08;100.00;101831.38;4917970;29;20544;-92
2024/01/21 10:34:54;;;;;;;6.03;3.53;;;;;;;2.03;100.00;101825.56;4903195;29;20036;-89
2024/01/21 10:37:27;;;;;;;6.37;3.70;;;;;;;2.07;100.00;101823.50;4902270;29;20460;-93
2024/01/21 10:39:57;;;;;;;7.85;3.88;;;;;;;2.12;100.00;101818.56;4902885;29;20119;-91
2024/01/21 10:42:23;;;;;;;8.90;4.15;;;;;;;2.08;100.00;101804.59;4923681;29;20036;-91
2024/01/21 10:44:58;;;;;;;6.67;3.60;;;;;;;2.12;100.00;101794.47;4921477;29;20091;-91
2024/01/21 10:47:47;;;;;;;7.32;4.00;;;;;;;2.19;100.00;101803.66;4937393;29;20055;-91
2024/01/21 10:50:34;;;;;;;7.28;3.40;;;;;;;2.32;100.00;101794.50;4921574;29;20032;-91
2024/01/21 10:53:13;;;;;;;6.43;4.30;;;;;;;2.41;100.00;101778.47;4938165;29;20044;-91
2024/01/21 10:55:45;;;;;;;8.23;3.63;;;;;;;2.54;100.00;101799.63;4937449;29;20032;-92
2024/01/21 10:58:21;;;;;;;;;;;;;;;;;;;;;
2024/01/21 11:01:00;;;;;;;8.10;4.05;;;;;;;2.75;100.00;101791.47;4938663;29;20034;-91
2024/01/21 11:03:31;;;;;;;5.63;3.40;;;;;;;2.87;100.00;101794.00;4936531;29;20111;-92
2024/01/21 11:06:16;;;;;;;6.60;4.00;;;;;;;2.96;100.00;101780.56;4937215;29;20032;-92
2024/01/21 11:08:45;;;;;;;7.10;3.53;;;;;;;3.05;100.00;101788.78;4936941;29;20428;-90
2024/01/21 11:11:14;;;;;;;6.85;3.97;;;;;;;3.14;100.00;101783.41;4935917;29;20028;-90
2024/01/21 11:14:00;;;;;;;;;;;;;;;;;;;;;
2024/01/21 11:16:46;;;;;;;9.40;4.03;;;;;;;3.42;100.00;101775.41;4937598;29;20043;-91
2024/01/21 11:19:11;;;;;;;6.70;3.63;;;;;;;3.53;100.00;101805.75;4936579;29;20044;-89
2024/01/21 11:21:41;;;;;;;6.03;3.57;;;;;;;3.58;100.00;101819.59;4935861;29;20571;-89
2024/01/21 11:24:37;;;;;;;8.30;4.03;;;;;;;3.63;100.00;101811.94;4935893;29;20114;-89
2024/01/21 11:27:13;;;;;;;;;;;;;;;;;;;;;
2024/01/21 11:29:42;;;;;;;6.00;3.77;;;;;;;3.73;99.80;101809.22;4936614;29;20030;-89
2024/01/21 11:32:14;;;;;;;7.05;3.70;;;;;;;3.75;99.90;101799.19;4919856;29;20035;-89
2024/01/21 11:34:45;;;;;;;6.28;3.80;;;;;;;3.76;99.32;101796.34;4936801;29;20031;-90
2024/01/21 11:37:24;;;;;;;;;;;;;;;;;;;;;
2024/01/21 11:39:50;;;;;;;5.47;3.33;;;;;;;3.85;99.45;101808.03;4933526;29;20036;-89
2024/01/21 11:42:26;;;;;;;6.50;3.80;;;;;;;3.87;99.03;101798.03;4935482;29;20437;-89
2024/01/21 11:45:21;;;;;;;6.45;3.95;;;;;;;3.80;99.05;101792.38;4932234;29;20016;-90
2024/01/21 11:50:54;;;;;;;6.75;3.60;;;;;;;3.97;99.21;101817.63;4932787;29;20387;-91
2024/01/21 11:53:22;;;;;;;6.15;3.80;;;;;;;3.90;98.70;101797.72;4919261;29;20035;-89
2024/01/21 11:56:00;;;;;;;6.82;3.50;;;;;;;3.92;98.93;101792.19;4934158;29;20028;-92
2024/01/21 11:58:29;;;;;;;5.10;3.25;;;;;;;4.00;99.13;101803.91;4935584;29;20063;-90
2024/01/21 12:01:20;;;;;;;8.23;2.95;;;;;;;4.06;98.66;101786.34;4931435;29;20040;-92
2024/01/21 12:06:43;;;;;;;6.50;3.28;;;;;;;4.11;97.61;101793.94;4928757;29;20047;-89
2024/01/21 12:09:12;;;;;;;6.88;3.70;;;;;;;3.93;99.38;101791.22;4933930;29;20028;-88
2024/01/21 12:11:39;;;;;;;6.20;3.10;;;;;;;3.97;99.20;101795.28;4934028;29;20055;-88
2024/01/21 12:14:07;;;;;;;5.70;3.45;;;;;;;3.94;99.46;101812.53;4933911;29;20032;-89
2024/01/21 12:16:46;;;;;;;;;;;;;;;;;;;;;
2024/01/21 12:19:24;;;;;;;7.15;3.25;;;;;;;3.89;100.00;101790.66;4932372;29;20492;-88
2024/01/21 12:21:52;;;;;;;7.10;3.63;;;;;;;3.87;100.00;101795.34;4925886;29;20035;-88
2024/01/21 12:24:24;;;;;;;5.53;3.30;;;;;;;3.86;100.00;101789.09;4934578;29;20031;-88
2024/01/21 12:26:50;;;;;;;5.65;2.58;;;;;;;3.93;100.00;101807.31;4923167;29;20120;-88
2024/01/21 12:29:19;;;;;;;6.83;3.60;;;;;;;3.90;100.00;101808.47;4933432;29;20110;-88